createdAt,value
2023-04-08T00:02:21.357Z,98735.78
2023-04-08T00:04:48.907Z,98735.13
2023-04-08T00:07:16.396Z,98732.53
2023-04-08T00:09:43.873Z,98734.72
2023-04-08T00:12:11.425Z,98728.59
2023-04-08T00:14:38.941Z,98735.81
2023-04-08T00:17:06.513Z,98735.97
2023-04-08T00:19:36.240Z,98741.66
2023-04-08T00:22:03.896Z,98735.69
2023-04-08T00:24:31.465Z,98744.56
2023-04-08T00:26:58.829Z,98744.56
2023-04-08T00:29:26.395Z,98745.06
2023-04-08T00:31:54.290Z,98739.75
2023-04-08T00:34:22.036Z,98750.53
2023-04-08T00:36:49.443Z,98750.13
2023-04-08T00:39:16.932Z,98747.13
2023-04-08T00:41:44.498Z,98739.22
2023-04-08T00:44:11.939Z,98751.91
2023-04-08T00:46:40.698Z,98751.50
2023-04-08T00:49:08.205Z,98738.00
2023-04-08T00:51:39.117Z,98738.94
2023-04-08T00:54:07.425Z,98740.31
2023-04-08T00:56:36.661Z,98744.13
2023-04-08T00:59:05.293Z,98746.31
2023-04-08T01:02:09.854Z,98747.94
2023-04-08T01:05:03.383Z,98743.56
2023-04-08T01:07:48.976Z,98746.31
2023-04-08T01:10:22.726Z,98737.34
2023-04-08T01:13:12.759Z,98745.25
2023-04-08T01:15:44.173Z,98735.16
2023-04-08T01:18:15.720Z,98740.47
2023-04-08T01:20:44.623Z,98749.03
2023-04-08T01:24:05.110Z,98747.13
2023-04-08T01:26:33.397Z,98745.78
2023-04-08T01:29:03.148Z,98746.16
2023-04-08T01:31:32.393Z,98746.88
2023-04-08T01:34:04.623Z,98746.03
2023-04-08T01:36:33.310Z,98747.00
2023-04-08T01:39:04.076Z,98750.81
2023-04-08T01:41:36.102Z,98753.81
2023-04-08T01:44:04.968Z,98745.25
2023-04-08T01:46:33.955Z,98756.25
2023-04-08T01:49:05.924Z,98753.09
2023-04-08T01:51:37.735Z,98756.38
2023-04-08T01:54:06.348Z,98768.22
2023-04-08T01:56:39.463Z,98758.56
2023-04-08T01:59:14.147Z,98754.59
2023-04-08T02:01:45.560Z,98757.19
2023-04-08T02:04:13.909Z,98760.03
2023-04-08T02:06:41.517Z,98758.94
2023-04-08T02:09:09.126Z,98765.06
2023-04-08T02:11:37.756Z,98758.53
2023-04-08T02:14:05.772Z,98765.75
2023-04-08T02:16:42.691Z,98761.00
2023-04-08T02:19:29.729Z,98765.59
2023-04-08T02:22:18.753Z,98769.28
2023-04-08T02:24:47.381Z,98757.75
2023-04-08T02:27:17.106Z,98758.16
2023-04-08T02:29:47.276Z,98755.84
2023-04-08T02:32:17.196Z,98756.50
2023-04-08T02:34:48.152Z,98754.22
2023-04-08T02:37:15.874Z,98748.75
2023-04-08T02:39:43.374Z,98752.44
2023-04-08T02:42:12.119Z,98752.69
2023-04-08T02:44:39.572Z,98749.84
2023-04-08T02:47:06.977Z,98757.97
2023-04-08T02:49:35.858Z,98756.88
2023-04-08T02:52:03.360Z,98757.44
2023-04-08T02:54:31.122Z,98748.75
2023-04-08T02:56:59.767Z,98754.47
2023-04-08T02:59:27.150Z,98752.56
2023-04-08T03:01:54.644Z,98747.00
2023-04-08T03:04:22.095Z,98744.81
2023-04-08T03:06:49.547Z,98749.16
2023-04-08T03:09:17.172Z,98750.53
2023-04-08T03:11:44.993Z,98746.28
2023-04-08T03:14:12.402Z,98756.09
2023-04-08T03:16:39.875Z,98749.03
2023-04-08T03:19:07.237Z,98742.75
2023-04-08T03:21:34.676Z,98751.22
2023-04-08T03:24:02.074Z,98756.69
2023-04-08T03:26:29.532Z,98754.75
2023-04-08T03:28:56.998Z,98750.13
2023-04-08T03:31:24.489Z,98752.59
2023-04-08T03:33:52.063Z,98753.53
2023-04-08T03:36:19.709Z,98757.22
2023-04-08T03:38:47.410Z,98759.09
2023-04-08T03:41:14.926Z,98754.78
2023-04-08T03:43:42.417Z,98760.88
2023-04-08T03:46:09.883Z,98762.41
2023-04-08T03:48:37.409Z,98767.03
2023-04-08T03:51:04.950Z,98772.72
2023-04-08T03:53:32.444Z,98778.84
2023-04-08T03:55:59.996Z,98780.88
2023-04-08T03:58:27.410Z,98778.16
2023-04-08T04:00:54.780Z,98780.88
2023-04-08T04:03:22.970Z,98777.03
2023-04-08T04:05:51.107Z,98784.91
2023-04-08T04:08:18.790Z,98788.22
2023-04-08T04:10:46.240Z,98790.91
2023-04-08T04:13:13.773Z,98797.06
2023-04-08T04:15:41.593Z,98797.91
2023-04-08T04:18:09.311Z,98801.16
2023-04-08T04:20:42.043Z,98807.00
2023-04-08T04:23:10.099Z,98807.53
2023-04-08T04:25:39.493Z,98807.69
2023-04-08T04:28:07.975Z,98812.44
2023-04-08T04:30:37.665Z,98813.94
2023-04-08T04:33:06.505Z,98814.88
2023-04-08T04:35:34.578Z,98821.69
2023-04-08T04:38:02.130Z,98818.16
2023-04-08T04:40:29.542Z,98824.28
2023-04-08T04:42:56.992Z,98828.38
2023-04-08T04:45:24.309Z,98824.00
2023-04-08T04:47:51.735Z,98827.97
2023-04-08T04:50:19.128Z,98825.00
2023-04-08T04:52:46.572Z,98828.66
2023-04-08T04:55:15.828Z,98824.28
2023-04-08T04:57:44.493Z,98832.84
2023-04-08T05:00:12.270Z,98834.81
2023-04-08T05:02:39.568Z,98841.59
2023-04-08T05:05:07.266Z,98834.66
2023-04-08T05:07:38.204Z,98839.44
2023-04-08T05:10:06.223Z,98840.38
2023-04-08T05:12:33.538Z,98841.75
2023-04-08T05:15:00.930Z,98842.84
2023-04-08T05:17:28.241Z,98846.53
2023-04-08T05:19:55.537Z,98851.72
2023-04-08T05:22:22.742Z,98846.81
2023-04-08T05:24:49.950Z,98849.97
2023-04-08T05:27:17.373Z,98854.19
2023-04-08T05:29:44.592Z,98858.00
2023-04-08T05:32:11.765Z,98858.53
2023-04-08T05:34:39.048Z,98858.13
2023-04-08T05:37:06.574Z,98856.78
2023-04-08T05:39:33.763Z,98860.22
2023-04-08T05:42:00.971Z,98862.91
2023-04-08T05:44:28.244Z,98855.38
2023-04-08T05:46:55.996Z,98866.00
2023-04-08T05:49:23.268Z,98861.94
2023-04-08T05:51:50.506Z,98863.56
2023-04-08T05:54:17.678Z,98863.38
2023-04-08T05:56:46.425Z,98861.06
2023-04-08T05:59:13.724Z,98873.31
2023-04-08T06:01:40.958Z,98871.50
2023-04-08T06:04:08.331Z,98872.84
2023-04-08T06:06:38.079Z,98872.97
2023-04-08T06:09:05.893Z,98873.84
2023-04-08T06:11:33.090Z,98871.88
2023-04-08T06:14:00.235Z,98863.66
2023-04-08T06:16:27.692Z,98867.16
2023-04-08T06:18:55.095Z,98873.91
2023-04-08T06:21:22.412Z,98877.31
2023-04-08T06:23:49.580Z,98866.75
2023-04-08T06:26:17.043Z,98875.09
2023-04-08T06:28:44.373Z,98869.44
2023-04-08T06:31:12.041Z,98873.81
2023-04-08T06:33:39.346Z,98872.28
2023-04-08T06:36:08.031Z,98873.34
2023-04-08T06:38:35.773Z,98861.66
2023-04-08T06:41:06.861Z,98868.53
2023-04-08T06:43:37.924Z,98862.06
2023-04-08T06:46:05.389Z,98878.03
2023-04-08T06:48:32.624Z,98869.34
2023-04-08T06:51:01.311Z,98872.94
2023-04-08T06:53:32.812Z,98876.34
2023-04-08T06:56:00.534Z,98868.53
2023-04-08T06:58:27.741Z,98872.22
2023-04-08T07:00:56.262Z,98873.69
2023-04-08T07:03:24.038Z,98880.81
2023-04-08T07:05:51.428Z,98875.34
2023-04-08T07:08:19.122Z,98871.50
2023-04-08T07:10:46.361Z,98876.06
2023-04-08T07:13:13.961Z,98879.72
2023-04-08T07:15:41.666Z,98880.81
2023-04-08T07:18:08.954Z,98879.88
2023-04-08T07:20:38.515Z,98889.97
2023-04-08T07:23:05.942Z,98883.69
2023-04-08T07:25:35.235Z,98886.09
2023-04-08T07:28:02.498Z,98883.59
2023-04-08T07:30:29.712Z,98888.22
2023-04-08T07:32:59.317Z,98888.81
2023-04-08T07:35:28.314Z,98890.13
2023-04-08T07:37:55.786Z,98899.00
2023-04-08T07:40:23.169Z,98896.75
2023-04-08T07:42:50.363Z,98888.50
2023-04-08T07:45:17.835Z,98898.25
2023-04-08T07:47:45.101Z,98900.78
2023-04-08T07:50:12.486Z,98903.94
2023-04-08T07:52:39.781Z,98898.72
2023-04-08T07:55:07.705Z,98902.66
2023-04-08T07:57:35.116Z,98913.22
2023-04-08T08:00:03.713Z,98904.00
2023-04-08T08:02:40.628Z,98902.38
2023-04-08T08:05:08.379Z,98911.63
2023-04-08T08:07:35.691Z,98915.88
2023-04-08T08:10:02.974Z,98918.78
2023-04-08T08:12:30.425Z,98918.72
2023-04-08T08:14:59.156Z,98920.41
2023-04-08T08:17:27.694Z,98923.22
2023-04-08T08:19:55.425Z,98919.66
2023-04-08T08:22:22.885Z,98927.91
2023-04-08T08:24:50.086Z,98918.16
2023-04-08T08:27:17.348Z,98913.47
2023-04-08T08:29:44.597Z,98920.66
2023-04-08T08:32:12.455Z,98919.97
2023-04-08T08:34:39.606Z,98913.09
2023-04-08T08:37:06.878Z,98910.56
2023-04-08T08:39:34.164Z,98912.75
2023-04-08T08:42:01.385Z,98907.53
2023-04-08T08:44:30.663Z,98910.00
2023-04-08T08:46:57.983Z,98904.66
2023-04-08T08:49:25.443Z,98906.03
2023-04-08T08:51:54.878Z,98906.09
2023-04-08T08:54:22.319Z,98909.91
2023-04-08T08:56:49.568Z,98908.84
2023-04-08T08:59:16.821Z,98902.47
2023-04-08T09:01:44.251Z,98904.91
2023-04-08T09:04:18.447Z,98905.44
2023-04-08T09:07:07.732Z,98899.94
2023-04-08T09:09:49.329Z,98904.38
2023-04-08T09:12:18.026Z,98901.16
2023-04-08T09:14:45.533Z,98915.63
2023-04-08T09:17:12.791Z,98905.41
2023-04-08T09:19:40.364Z,98911.69
2023-04-08T09:22:08.951Z,98908.16
2023-04-08T09:24:37.544Z,98915.63
2023-04-08T09:27:05.902Z,98910.47
2023-04-08T09:29:37.377Z,98910.63
2023-04-08T09:32:06.809Z,98914.59
2023-04-08T09:34:34.583Z,98916.66
2023-04-08T09:37:02.310Z,98912.84
2023-04-08T09:39:30.678Z,98919.38
2023-04-08T09:42:01.493Z,98919.03
2023-04-08T09:44:30.637Z,98916.69
2023-04-08T09:47:20.329Z,98913.38
2023-04-08T09:49:53.886Z,98915.44
2023-04-08T09:52:46.751Z,98921.53
2023-04-08T09:55:14.779Z,98921.97
2023-04-08T09:58:03.984Z,98919.72
2023-04-08T10:00:44.069Z,98921.81
2023-04-08T10:03:19.228Z,98934.38
2023-04-08T10:05:47.344Z,98942.03
2023-04-08T10:08:15.495Z,98919.63
2023-04-08T10:10:43.426Z,98923.50
2023-04-08T10:13:11.051Z,98925.38
2023-04-08T10:15:40.841Z,98914.28
2023-04-08T10:18:11.227Z,98917.28
2023-04-08T10:20:38.674Z,98915.69
2023-04-08T10:23:09.708Z,98914.56
2023-04-08T10:25:41.698Z,98914.66
2023-04-08T10:28:11.934Z,98914.75
2023-04-08T10:30:40.395Z,98920.66
2023-04-08T10:33:13.449Z,98939.00
2023-04-08T10:35:48.926Z,98923.28
2023-04-08T10:38:17.751Z,98923.06
2023-04-08T10:40:45.981Z,98926.88
2023-04-08T10:43:14.352Z,98918.19
2023-04-08T10:45:43.131Z,98922.63
2023-04-08T10:48:14.153Z,98926.16
2023-04-08T10:50:41.911Z,98930.03
2023-04-08T10:53:11.218Z,98936.34
2023-04-08T10:55:38.697Z,98933.34
2023-04-08T10:58:10.313Z,98939.09
2023-04-08T11:00:39.711Z,98939.94
2023-04-08T11:03:09.231Z,98925.34
2023-04-08T11:05:38.186Z,98935.94
2023-04-08T11:08:06.419Z,98943.66
2023-04-08T11:10:41.337Z,98941.38
2023-04-08T11:13:09.976Z,98939.56
2023-04-08T11:15:37.795Z,98939.75
2023-04-08T11:18:05.681Z,98939.59
2023-04-08T11:20:37.136Z,98935.09
2023-04-08T11:23:04.321Z,98940.22
2023-04-08T11:25:31.999Z,98938.34
2023-04-08T11:28:00.432Z,98927.13
2023-04-08T11:30:28.991Z,98921.06
2023-04-08T11:32:57.015Z,98913.53
2023-04-08T11:35:24.480Z,98912.28
2023-04-08T11:37:52.386Z,98907.25
2023-04-08T11:40:22.207Z,98900.09
2023-04-08T11:42:50.228Z,98893.78
2023-04-08T11:45:19.954Z,98899.97
2023-04-08T11:47:48.459Z,98899.75
2023-04-08T11:50:25.845Z,98899.00
2023-04-08T11:52:53.574Z,98902.28
2023-04-08T11:55:28.716Z,98918.09
2023-04-08T11:57:57.423Z,98907.81
2023-04-08T12:00:24.617Z,98913.34
2023-04-08T12:02:52.739Z,98910.34
2023-04-08T12:05:20.505Z,98908.44
2023-04-08T12:07:48.212Z,98907.38
2023-04-08T12:10:15.544Z,98906.03
2023-04-08T12:12:42.835Z,98908.72
2023-04-08T12:15:10.838Z,98909.44
2023-04-08T12:17:41.178Z,98921.41
2023-04-08T12:20:08.972Z,98913.81
2023-04-08T12:22:36.793Z,98912.91
2023-04-08T12:25:04.407Z,98908.97
2023-04-08T12:27:33.544Z,98912.75
2023-04-08T12:30:01.560Z,98916.31
2023-04-08T12:32:28.995Z,98914.56
2023-04-08T12:34:56.261Z,98915.84
2023-04-08T12:37:23.755Z,98923.59
2023-04-08T12:39:51.604Z,98923.72
2023-04-08T12:42:18.788Z,98920.94
2023-04-08T12:44:46.453Z,98921.91
2023-04-08T12:47:13.654Z,98922.56
2023-04-08T12:52:11.206Z,98911.16
2023-04-08T12:54:38.413Z,98912.44
2023-04-08T12:57:05.792Z,98905.94
2023-04-08T12:59:33.556Z,98909.69
2023-04-08T13:02:00.898Z,98913.91
2023-04-08T13:04:28.182Z,98913.91
2023-04-08T13:06:55.721Z,98908.03
2023-04-08T13:09:23.005Z,98915.97
2023-04-08T13:11:50.361Z,98921.19
2023-04-08T13:14:18.290Z,98910.19
2023-04-08T13:16:46.317Z,98911.94
2023-04-08T13:19:13.636Z,98908.53
2023-04-08T13:21:41.075Z,98910.00
2023-04-08T13:24:08.260Z,98907.56
2023-04-08T13:26:35.485Z,98904.63
2023-04-08T13:29:02.885Z,98903.31
2023-04-08T13:31:30.379Z,98901.72
2023-04-08T13:33:58.321Z,98905.72
2023-04-08T13:36:26.848Z,98901.56
2023-04-08T13:38:54.750Z,98902.13
2023-04-08T13:41:22.081Z,98892.72
2023-04-08T13:43:50.503Z,98895.72
2023-04-08T13:46:18.503Z,98891.41
2023-04-08T13:48:46.380Z,98893.63
2023-04-08T13:51:13.987Z,98879.47
2023-04-08T13:53:41.228Z,98872.06
2023-04-08T13:56:08.615Z,98870.09
2023-04-08T13:58:35.806Z,98858.13
2023-04-08T14:01:03.252Z,98861.19
2023-04-08T14:03:30.524Z,98859.72
2023-04-08T14:06:01.120Z,98866.72
2023-04-08T14:08:28.941Z,98864.81
2023-04-08T14:10:57.486Z,98857.53
2023-04-08T14:13:24.697Z,98854.97
2023-04-08T14:15:53.774Z,98854.13
2023-04-08T14:18:21.406Z,98857.06
2023-04-08T14:20:48.554Z,98860.19
2023-04-08T14:23:17.040Z,98860.25
2023-04-08T14:25:44.403Z,98863.59
2023-04-08T14:28:11.621Z,98857.50
2023-04-08T14:30:38.882Z,98863.13
2023-04-08T14:33:06.457Z,98859.13
2023-04-08T14:35:33.866Z,98868.03
2023-04-08T14:38:01.545Z,98858.28
2023-04-08T14:40:28.953Z,98874.03
2023-04-08T14:42:56.432Z,98855.53
2023-04-08T14:45:23.840Z,98859.44
2023-04-08T14:47:51.139Z,98861.31
2023-04-08T14:50:18.914Z,98845.63
2023-04-08T14:52:48.548Z,98850.44
2023-04-08T14:55:16.768Z,98848.53
2023-04-08T14:57:43.970Z,98835.59
2023-04-08T15:00:11.808Z,98843.19
2023-04-08T15:02:39.231Z,98843.25
2023-04-08T15:05:07.145Z,98849.28
2023-04-08T15:07:34.642Z,98847.53
2023-04-08T15:10:02.052Z,98852.41
2023-04-08T15:12:29.530Z,98850.69
2023-04-08T15:14:56.782Z,98848.13
2023-04-08T15:17:24.714Z,98853.91
2023-04-08T15:19:52.386Z,98853.25
2023-04-08T15:22:19.821Z,98844.47
2023-04-08T15:24:48.063Z,98851.41
2023-04-08T15:27:16.073Z,98850.31
2023-04-08T15:29:43.292Z,98850.13
2023-04-08T15:32:10.910Z,98859.00
2023-04-08T15:34:38.122Z,98859.25
2023-04-08T15:37:06.441Z,98855.34
2023-04-08T15:39:33.672Z,98858.00
2023-04-08T15:42:01.518Z,98860.66
2023-04-08T15:44:32.304Z,98855.09
2023-04-08T15:46:59.623Z,98857.44
2023-04-08T15:49:26.879Z,98863.69
2023-04-08T15:51:54.122Z,98868.00
2023-04-08T15:54:21.461Z,98867.88
2023-04-08T15:56:48.646Z,98865.09
2023-04-08T15:59:15.992Z,98869.47
2023-04-08T16:01:43.362Z,98869.63
2023-04-08T16:04:11.233Z,98868.00
2023-04-08T16:06:38.496Z,98869.63
2023-04-08T16:09:06.466Z,98873.69
2023-04-08T16:11:34.204Z,98878.44
2023-04-08T16:14:01.947Z,98880.19
2023-04-08T16:16:29.823Z,98878.47
2023-04-08T16:18:57.018Z,98882.13
2023-04-08T16:21:24.266Z,98878.72
2023-04-08T16:23:51.718Z,98884.72
2023-04-08T16:26:19.872Z,98890.13
2023-04-08T16:28:47.229Z,98884.41
2023-04-08T16:31:14.453Z,98903.66
2023-04-08T16:33:41.825Z,98902.81
2023-04-08T16:36:09.347Z,98900.19
2023-04-08T16:38:36.697Z,98904.47
2023-04-08T16:41:06.292Z,98901.16
2023-04-08T16:43:33.649Z,98903.94
2023-04-08T16:46:10.684Z,98901.97
2023-04-08T16:48:39.192Z,98903.75
2023-04-08T16:51:06.896Z,98909.78
2023-04-08T16:53:34.162Z,98909.94
2023-04-08T16:56:02.295Z,98913.69
2023-04-08T16:58:29.657Z,98913.19
2023-04-08T17:00:56.872Z,98912.69
2023-04-08T17:03:24.216Z,98912.28
2023-04-08T17:05:51.845Z,98919.16
2023-04-08T17:08:19.333Z,98924.00
2023-04-08T17:10:48.597Z,98913.00
2023-04-08T17:13:16.023Z,98924.59
2023-04-08T17:15:43.441Z,98927.25
2023-04-08T17:18:10.599Z,98936.03
2023-04-08T17:20:38.300Z,98939.44
2023-04-08T17:23:05.874Z,98936.03
2023-04-08T17:25:33.080Z,98947.09
2023-04-08T17:28:00.290Z,98949.34
2023-04-08T17:30:27.576Z,98952.16
2023-04-08T17:32:54.735Z,98956.59
2023-04-08T17:35:22.156Z,98950.34
2023-04-08T17:37:50.280Z,98955.31
2023-04-08T17:40:17.740Z,98963.25
2023-04-08T17:42:44.943Z,98965.16
2023-04-08T17:45:12.290Z,98970.34
2023-04-08T17:47:39.595Z,98972.28
2023-04-08T17:50:08.305Z,98975.13
2023-04-08T17:52:36.646Z,98978.53
2023-04-08T17:55:04.138Z,98983.63
2023-04-08T17:57:31.344Z,98986.22
2023-04-08T17:59:58.518Z,98985.63
2023-04-08T18:02:27.519Z,98985.59
2023-04-08T18:04:55.883Z,99000.44
2023-04-08T18:07:23.102Z,99009.28
2023-04-08T18:09:50.384Z,99001.06
2023-04-08T18:12:17.678Z,98997.72
2023-04-08T18:14:44.932Z,98996.34
2023-04-08T18:17:12.361Z,99008.06
2023-04-08T18:19:39.565Z,99010.53
2023-04-08T18:22:06.779Z,99013.28
2023-04-08T18:24:34.140Z,99007.25
2023-04-08T18:27:04.785Z,99016.59
2023-04-08T18:29:32.299Z,99017.84
2023-04-08T18:31:59.573Z,99019.25
2023-04-08T18:34:27.094Z,99026.50
2023-04-08T18:36:54.316Z,99025.28
2023-04-08T18:39:21.473Z,99023.84
2023-04-08T18:41:48.734Z,99022.94
2023-04-08T18:44:15.918Z,99026.38
2023-04-08T18:46:43.290Z,99028.84
2023-04-08T18:49:10.587Z,99030.38
2023-04-08T18:51:38.145Z,99037.91
2023-04-08T18:54:06.442Z,99034.09
2023-04-08T18:56:34.917Z,99031.25
2023-04-08T18:59:03.638Z,99035.78
2023-04-08T19:01:32.643Z,99040.03
2023-04-08T19:04:10.717Z,99043.97
2023-04-08T19:06:39.688Z,99038.53
2023-04-08T19:09:07.428Z,99051.91
2023-04-08T19:11:34.610Z,99042.91
2023-04-08T19:14:01.835Z,99053.00
2023-04-08T19:16:29.087Z,99045.78
2023-04-08T19:18:57.162Z,99046.31
2023-04-08T19:21:24.417Z,99048.50
2023-04-08T19:23:51.954Z,99039.75
2023-04-08T19:26:19.457Z,99048.06
2023-04-08T19:28:47.175Z,99051.34
2023-04-08T19:31:18.377Z,99055.69
2023-04-08T19:33:45.928Z,99052.66
2023-04-08T19:36:13.301Z,99057.78
2023-04-08T19:38:40.627Z,99061.56
2023-04-08T19:41:07.865Z,99054.88
2023-04-08T19:43:35.481Z,99061.25
2023-04-08T19:46:03.645Z,99059.56
2023-04-08T19:48:32.594Z,99068.00
2023-04-08T19:51:00.059Z,99066.84
2023-04-08T19:53:27.317Z,99068.19
2023-04-08T19:56:03.391Z,99067.88
2023-04-08T19:58:30.590Z,99071.94
2023-04-08T20:00:57.930Z,99068.91
2023-04-08T20:03:25.960Z,99066.94
2023-04-08T20:05:53.288Z,99073.19
2023-04-08T20:08:20.583Z,99066.25
2023-04-08T20:10:49.538Z,99070.47
2023-04-08T20:13:16.888Z,99059.75
2023-04-08T20:15:45.210Z,99063.47
2023-04-08T20:18:12.585Z,99059.69
2023-04-08T20:20:40.095Z,99059.00
2023-04-08T20:23:07.257Z,99061.59
2023-04-08T20:25:34.507Z,99052.19
2023-04-08T20:28:01.675Z,99059.69
2023-04-08T20:30:29.005Z,99070.03
2023-04-08T20:32:56.361Z,99073.56
2023-04-08T20:35:23.552Z,99070.16
2023-04-08T20:37:51.178Z,99077.22
2023-04-08T20:40:18.561Z,99073.81
2023-04-08T20:42:46.201Z,99072.19
2023-04-08T20:45:13.476Z,99068.19
2023-04-08T20:47:40.734Z,99070.78
2023-04-08T20:50:09.052Z,99071.75
2023-04-08T20:52:36.230Z,99071.75
2023-04-08T20:55:03.485Z,99073.38
2023-04-08T20:57:30.817Z,99076.53
2023-04-08T20:59:58.170Z,99071.13
2023-04-08T21:02:25.605Z,99086.50
2023-04-08T21:04:52.844Z,99081.84
2023-04-08T21:07:20.372Z,99072.81
2023-04-08T21:09:48.552Z,99078.50
2023-04-08T21:12:15.947Z,99085.31
2023-04-08T21:14:45.313Z,99080.59
2023-04-08T21:17:12.725Z,99086.00
2023-04-08T21:19:39.947Z,99079.78
2023-04-08T21:22:07.254Z,99069.41
2023-04-08T21:24:34.430Z,99067.06
2023-04-08T21:27:01.690Z,99079.31
2023-04-08T21:29:30.406Z,99080.66
2023-04-08T21:31:57.758Z,99069.03
2023-04-08T21:34:25.034Z,99077.03
2023-04-08T21:36:52.253Z,99066.19
2023-04-08T21:39:19.819Z,99059.00
2023-04-08T21:41:48.030Z,99060.28
2023-04-08T21:44:15.605Z,99062.63
2023-04-08T21:46:42.953Z,99061.41
2023-04-08T21:49:11.261Z,99054.22
2023-04-08T21:51:39.247Z,99055.03
2023-04-08T21:54:07.171Z,99053.44
2023-04-08T21:56:34.454Z,99051.97
2023-04-08T21:59:01.678Z,99053.47
2023-04-08T22:01:29.104Z,99056.78
2023-04-08T22:03:56.863Z,99055.00
2023-04-08T22:06:31.992Z,99055.69
2023-04-08T22:09:00.024Z,99055.69
2023-04-08T22:11:27.457Z,99040.88
2023-04-08T22:13:54.680Z,99052.03
2023-04-08T22:16:21.925Z,99048.22
2023-04-08T22:18:49.185Z,99048.66
2023-04-08T22:21:16.878Z,99042.41
2023-04-08T22:23:44.124Z,99045.09
2023-04-08T22:26:11.303Z,99051.22
2023-04-08T22:28:38.515Z,99049.75
2023-04-08T22:31:10.973Z,99055.16
2023-04-08T22:33:39.106Z,99047.78
2023-04-08T22:36:06.597Z,99054.72
2023-04-08T22:38:33.859Z,99051.06
2023-04-08T22:41:01.338Z,99061.66
2023-04-08T22:43:28.722Z,99064.91
2023-04-08T22:45:56.089Z,99062.28
2023-04-08T22:48:23.303Z,99059.75
2023-04-08T22:50:51.406Z,99059.66
2023-04-08T22:53:18.685Z,99056.47
2023-04-08T22:55:46.029Z,99047.19
2023-04-08T22:58:13.270Z,99045.19
2023-04-08T23:00:40.726Z,99052.75
2023-04-08T23:03:07.963Z,99051.25
2023-04-08T23:05:35.188Z,99052.44
2023-04-08T23:08:02.409Z,99052.59
2023-04-08T23:10:29.712Z,99050.72
2023-04-08T23:12:57.045Z,99055.41
2023-04-08T23:15:24.201Z,99048.59
2023-04-08T23:17:51.434Z,99045.91
2023-04-08T23:20:18.666Z,99046.38
2023-04-08T23:22:46.459Z,99045.69
2023-04-08T23:25:13.929Z,99047.56
2023-04-08T23:27:41.121Z,99051.53
2023-04-08T23:30:08.825Z,99053.41
2023-04-08T23:32:36.189Z,99056.13
2023-04-08T23:35:03.599Z,99054.34
2023-04-08T23:37:31.164Z,99049.88
2023-04-08T23:39:58.393Z,99053.28
2023-04-08T23:42:27.298Z,99053.16
2023-04-08T23:44:54.961Z,99045.06
2023-04-08T23:47:22.369Z,99054.91
2023-04-08T23:49:49.678Z,99054.34
2023-04-08T23:52:17.008Z,99050.34
2023-04-08T23:54:44.210Z,99060.75
2023-04-08T23:57:11.480Z,99051.59
2023-04-08T23:59:38.818Z,99052.38
